Time;durP1;ratioP1;P1;durP2;ratioP2;P2;SDS_P1;SDS_P2;PMS_P1;PMS_P2;Temp;Humidity;BMP_temperature;BMP_pressure;BME280_temperature;BME280_humidity;BME280_pressure;Samples;Min_cycle;Max_cycle;Signal;HPM_P1;HPM_P2
2022/04/17 00:00:26;;;;;;;11.52;7.05;;;;;;;;;;5040025;28;20046;-67
2022/04/17 00:02:53;;;;;;;11.18;6.47;;;;;;;;;;5021101;28;20052;-65
2022/04/17 00:05:19;;;;;;;13.63;7.60;;;;;;;;;;5043766;28;20072;-65
2022/04/17 00:07:45;;;;;;;14.15;7.30;;;;;;;;;;5053141;28;20106;-65
2022/04/17 00:10:12;;;;;;;13.13;7.30;;;;;;;;;;5034051;28;20041;-65
2022/04/17 00:12:41;;;;;;;11.93;7.15;;;;;;;;;;5034900;28;20139;-66
2022/04/17 00:15:10;;;;;;;10.55;6.93;;;;;;;;;;5032883;28;20504;-65
2022/04/17 00:17:42;;;;;;;10.43;6.65;;;;;;;;;;5045552;28;20053;-66
2022/04/17 00:20:15;;;;;;;11.10;6.80;;;;;;;;;;5030161;28;20132;-64
2022/04/17 00:22:41;;;;;;;10.23;7.13;;;;;;;;;;5046260;28;20049;-65
2022/04/17 00:25:08;;;;;;;12.77;7.57;;;;;;;;;;5024423;28;20392;-65
2022/04/17 00:27:39;;;;;;;11.80;7.20;;;;;;;;;;5038113;28;20057;-65
2022/04/17 00:30:05;;;;;;;12.88;6.93;;;;;;;;;;5031519;28;20048;-65
2022/04/17 00:32:31;;;;;;;13.70;7.18;;;;;;;;;;5032416;28;20106;-65
2022/04/17 00:35:01;;;;;;;11.90;7.15;;;;;;;;;;5017837;28;20052;-65
2022/04/17 00:37:27;;;;;;;11.43;6.65;;;;;;;;;;5048174;28;20057;-65
2022/04/17 00:39:53;;;;;;;9.45;6.28;;;;;;;;;;5042916;28;20041;-65
2022/04/17 00:42:19;;;;;;;12.80;7.00;;;;;;;;;;5049841;28;20380;-65
2022/04/17 00:44:45;;;;;;;11.73;6.80;;;;;;;;;;5052427;28;20045;-65
2022/04/17 00:47:20;;;;;;;13.68;6.93;;;;;;;;;;5052197;28;20044;-65
2022/04/17 00:49:47;;;;;;;11.65;6.63;;;;;;;;;;5017870;28;20384;-66
2022/04/17 00:52:14;;;;;;;12.32;6.85;;;;;;;;;;5052060;28;20081;-65
2022/04/17 00:54:43;;;;;;;11.27;6.95;;;;;;;;;;5049614;28;20140;-65
2022/04/17 00:57:11;;;;;;;10.57;6.75;;;;;;;;;;5032715;28;20057;-65
2022/04/17 00:59:38;;;;;;;9.60;6.82;;;;;;;;;;5041187;28;20052;-65
2022/04/17 01:02:06;;;;;;;17.02;7.60;;;;;;;;;;5049399;28;20072;-64
2022/04/17 01:04:32;;;;;;;12.85;7.47;;;;;;;;;;5046127;28;20053;-65
2022/04/17 01:06:58;;;;;;;20.60;8.35;;;;;;;;;;5052714;28;20395;-64
2022/04/17 01:09:24;;;;;;;13.27;7.35;;;;;;;;;;5051616;28;20056;-65
2022/04/17 01:11:51;;;;;;;15.32;7.22;;;;;;;;;;5051814;28;20048;-64
2022/04/17 01:14:20;;;;;;;12.48;7.05;;;;;;;;;;5052390;28;20434;-65
2022/04/17 01:16:46;;;;;;;;;;;;;;;;;;5056996;28;20041;-64
2022/04/17 01:19:12;;;;;;;14.45;7.72;;;;;;;;;;5052235;28;19921;-65
2022/04/17 01:21:42;;;;;;;14.80;7.80;;;;;;;;;;5030261;28;20480;-64
2022/04/17 01:26:56;;;;;;;10.43;6.88;;;;;;;;;;5051361;28;20041;-64
2022/04/17 01:29:22;;;;;;;11.52;6.95;;;;;;;;;;5035162;28;20749;-63
2022/04/17 01:31:48;;;;;;;12.02;7.43;;;;;;;;;;5051583;28;20049;-63
2022/04/17 01:34:18;;;;;;;13.07;7.20;;;;;;;;;;5033441;28;20057;-63
2022/04/17 01:36:44;;;;;;;12.88;7.90;;;;;;;;;;5046646;28;20045;-64
2022/04/17 01:39:11;;;;;;;10.93;7.18;;;;;;;;;;5055135;28;20122;-65
2022/04/17 01:41:37;;;;;;;11.68;7.57;;;;;;;;;;5055865;28;20036;-64
2022/04/17 01:44:03;;;;;;;11.02;7.43;;;;;;;;;;5049315;28;20047;-64
2022/04/17 01:46:29;;;;;;;12.18;8.38;;;;;;;;;;5037427;28;20120;-65
2022/04/17 01:48:55;;;;;;;12.05;8.45;;;;;;;;;;5038113;28;20126;-64
2022/04/17 01:51:21;;;;;;;13.15;8.20;;;;;;;;;;5050176;28;20542;-65
2022/04/17 01:53:48;;;;;;;10.40;7.40;;;;;;;;;;5033153;28;20057;-65
2022/04/17 01:56:14;;;;;;;13.65;7.72;;;;;;;;;;5049940;28;20096;-65
2022/04/17 01:58:39;;;;;;;14.70;8.13;;;;;;;;;;5035653;28;20049;-65
2022/04/17 02:01:06;;;;;;;12.90;8.00;;;;;;;;;;5018276;28;20445;-66
2022/04/17 02:03:32;;;;;;;14.90;8.35;;;;;;;;;;5053945;28;20049;-65
2022/04/17 02:06:00;;;;;;;15.05;8.50;;;;;;;;;;5038178;28;20080;-64
2022/04/17 02:08:28;;;;;;;14.85;8.15;;;;;;;;;;5024278;28;20045;-65
2022/04/17 02:10:54;;;;;;;12.43;7.60;;;;;;;;;;5035569;28;20451;-65
2022/04/17 02:13:20;;;;;;;15.90;8.02;;;;;;;;;;5053942;28;20122;-64
2022/04/17 02:15:45;;;;;;;13.35;8.07;;;;;;;;;;5023827;28;20038;-64
2022/04/17 02:18:13;;;;;;;12.18;8.10;;;;;;;;;;5045249;28;20056;-64
2022/04/17 02:20:39;;;;;;;13.35;7.88;;;;;;;;;;5034220;28;20053;-65
2022/04/17 02:23:05;;;;;;;15.10;8.10;;;;;;;;;;5040224;28;20050;-65
2022/04/17 02:25:31;;;;;;;11.65;7.60;;;;;;;;;;5036481;28;20041;-65
2022/04/17 02:27:57;;;;;;;12.68;7.78;;;;;;;;;;5022316;28;20480;-65
2022/04/17 02:30:23;;;;;;;14.07;7.97;;;;;;;;;;5051382;28;20053;-65
2022/04/17 02:32:49;;;;;;;13.68;7.93;;;;;;;;;;5021468;28;20503;-67
2022/04/17 02:35:17;;;;;;;18.13;8.27;;;;;;;;;;5043792;28;20130;-65
2022/04/17 02:37:43;;;;;;;15.18;8.32;;;;;;;;;;5038274;28;20057;-65
2022/04/17 02:40:09;;;;;;;16.98;8.65;;;;;;;;;;5042012;28;20041;-66
2022/04/17 02:42:35;;;;;;;13.70;8.20;;;;;;;;;;5047515;28;20057;-65
2022/04/17 02:45:01;;;;;;;10.73;7.70;;;;;;;;;;5025335;28;20045;-65
2022/04/17 02:50:12;;;;;;;11.75;8.00;;;;;;;;;;5044626;28;20049;-65
2022/04/17 02:52:39;;;;;;;11.38;7.57;;;;;;;;;;5054841;28;20045;-65
2022/04/17 02:55:06;;;;;;;11.80;8.32;;;;;;;;;;5038938;28;20049;-65
2022/04/17 02:57:32;;;;;;;15.90;8.25;;;;;;;;;;5024584;28;20080;-65
2022/04/17 02:59:59;;;;;;;13.68;7.82;;;;;;;;;;5025771;28;20501;-65
2022/04/17 03:07:54;;;;;;;14.90;8.15;;;;;;;;;;5053049;28;20049;-65
2022/04/17 03:10:20;;;;;;;12.05;8.13;;;;;;;;;;5034064;28;20077;-65
2022/04/17 03:12:46;;;;;;;12.30;8.00;;;;;;;;;;5040182;28;20045;-65
2022/04/17 03:15:13;;;;;;;12.40;7.80;;;;;;;;;;5021070;28;20041;-64
2022/04/17 03:17:39;;;;;;;14.95;8.98;;;;;;;;;;5011547;28;20053;-64
2022/04/17 03:20:05;;;;;;;19.02;9.00;;;;;;;;;;5046195;28;20049;-65
2022/04/17 03:22:34;;;;;;;22.48;9.98;;;;;;;;;;5045823;28;20045;-65
2022/04/17 03:25:01;;;;;;;25.30;10.23;;;;;;;;;;5038742;28;20041;-65
2022/04/17 03:27:30;;;;;;;21.85;9.90;;;;;;;;;;5034797;28;20057;-65
2022/04/17 03:29:57;;;;;;;22.52;10.93;;;;;;;;;;5041241;28;20045;-64
2022/04/17 03:32:23;;;;;;;23.83;10.30;;;;;;;;;;5032676;28;20090;-65
2022/04/17 03:34:49;;;;;;;17.63;9.13;;;;;;;;;;5044004;28;20132;-65
2022/04/17 03:37:15;;;;;;;25.33;10.40;;;;;;;;;;5031778;28;20053;-65
2022/04/17 03:39:41;;;;;;;20.40;9.38;;;;;;;;;;5052315;28;20048;-64
2022/04/17 03:42:07;;;;;;;15.80;9.18;;;;;;;;;;5039894;28;20045;-64
2022/04/17 03:44:33;;;;;;;19.52;9.10;;;;;;;;;;5043532;28;20042;-64
2022/04/17 03:46:59;;;;;;;17.35;9.27;;;;;;;;;;5043676;28;20054;-65
2022/04/17 03:49:26;;;;;;;15.13;8.57;;;;;;;;;;5017833;28;20124;-66
2022/04/17 03:51:52;;;;;;;19.45;8.98;;;;;;;;;;5040475;28;20499;-66
2022/04/17 03:54:18;;;;;;;19.63;9.88;;;;;;;;;;5054942;28;20041;-65
2022/04/17 03:56:46;;;;;;;16.30;8.93;;;;;;;;;;5050118;28;20053;-65
2022/04/17 03:59:12;;;;;;;14.25;9.18;;;;;;;;;;5050789;28;20041;-65
2022/04/17 04:01:38;;;;;;;14.43;8.85;;;;;;;;;;5053067;28;20041;-64
2022/04/17 04:04:06;;;;;;;19.27;9.23;;;;;;;;;;5044287;28;20626;-64
2022/04/17 04:06:32;;;;;;;20.10;10.15;;;;;;;;;;5044545;28;20171;-64
2022/04/17 04:08:58;;;;;;;22.65;10.77;;;;;;;;;;5053864;28;20057;-64
2022/04/17 04:11:24;;;;;;;23.52;10.70;;;;;;;;;;5029589;28;20056;-65
2022/04/17 04:13:50;;;;;;;31.23;11.35;;;;;;;;;;5041813;28;20053;-65
2022/04/17 04:16:16;;;;;;;67.97;14.27;;;;;;;;;;5025280;28;20512;-65
2022/04/17 04:18:42;;;;;;;52.83;13.10;;;;;;;;;;5032807;28;20045;-65
2022/04/17 04:21:08;;;;;;;39.53;11.85;;;;;;;;;;5054920;28;20056;-64
2022/04/17 04:23:35;;;;;;;32.90;12.05;;;;;;;;;;5053833;28;20051;-64
2022/04/17 04:26:01;;;;;;;62.72;16.20;;;;;;;;;;5052654;28;20087;-65
2022/04/17 04:28:33;;;;;;;52.28;16.17;;;;;;;;;;5044056;28;20467;-64
2022/04/17 04:31:21;;;;;;;95.30;22.95;;;;;;;;;;5045058;28;20045;-64
2022/04/17 04:33:47;;;;;;;119.72;27.60;;;;;;;;;;5033201;28;20123;-64
2022/04/17 04:36:13;;;;;;;82.38;20.98;;;;;;;;;;5046142;28;20045;-65
2022/04/17 04:38:39;;;;;;;68.70;18.55;;;;;;;;;;5023993;28;20120;-65
2022/04/17 04:41:06;;;;;;;130.98;30.25;;;;;;;;;;5049469;28;20047;-65
2022/04/17 04:43:32;;;;;;;90.80;22.40;;;;;;;;;;5053160;28;20037;-65
2022/04/17 04:46:07;;;;;;;67.70;18.50;;;;;;;;;;5046494;28;20099;-65
2022/04/17 04:51:21;;;;;;;47.63;14.60;;;;;;;;;;5041531;28;20053;-64
2022/04/17 04:53:47;;;;;;;52.42;14.48;;;;;;;;;;5046407;28;20095;-65
2022/04/17 04:56:13;;;;;;;36.40;12.73;;;;;;;;;;5049192;28;20045;-65
2022/04/17 04:58:40;;;;;;;38.65;13.15;;;;;;;;;;5049256;28;20453;-65
2022/04/17 05:01:06;;;;;;;19.58;11.98;;;;;;;;;;5051179;28;20103;-64
2022/04/17 05:03:32;;;;;;;88.18;24.05;;;;;;;;;;5049434;28;20045;-64
2022/04/17 05:05:58;;;;;;;37.13;15.52;;;;;;;;;;5037693;28;20377;-64
2022/04/17 05:08:24;;;;;;;24.52;12.88;;;;;;;;;;5056529;28;20060;-65
2022/04/17 05:10:50;;;;;;;28.42;13.48;;;;;;;;;;5032957;28;20045;-65
2022/04/17 05:13:17;;;;;;;29.17;13.70;;;;;;;;;;5042099;28;20045;-64
2022/04/17 05:15:43;;;;;;;34.20;15.02;;;;;;;;;;5047318;28;20113;-64
2022/04/17 05:18:09;;;;;;;47.22;18.58;;;;;;;;;;5018710;28;20488;-64
2022/04/17 05:20:35;;;;;;;41.20;14.77;;;;;;;;;;5038967;28;20078;-65
2022/04/17 05:23:15;;;;;;;36.38;13.77;;;;;;;;;;5035383;28;20049;-64
2022/04/17 05:25:48;;;;;;;38.22;14.65;;;;;;;;;;5036299;28;20053;-65
2022/04/17 05:28:17;;;;;;;55.70;16.80;;;;;;;;;;5035773;28;20509;-64
2022/04/17 05:30:42;;;;;;;;;;;;;;;;;;5018590;28;20049;-64
2022/04/17 05:33:09;;;;;;;171.35;39.15;;;;;;;;;;5041980;28;20419;-64
2022/04/17 05:35:35;;;;;;;41.90;14.88;;;;;;;;;;5023819;28;20419;-66
2022/04/17 05:38:01;;;;;;;82.45;23.40;;;;;;;;;;5035646;28;20369;-65
2022/04/17 05:40:28;;;;;;;102.13;25.52;;;;;;;;;;5049022;28;20049;-65
2022/04/17 05:42:56;;;;;;;74.95;21.40;;;;;;;;;;5033248;28;20041;-65
2022/04/17 05:45:22;;;;;;;100.30;25.80;;;;;;;;;;5036278;28;20087;-64
2022/04/17 05:47:48;;;;;;;36.25;15.07;;;;;;;;;;5037272;28;20059;-65
2022/04/17 05:50:14;;;;;;;47.78;16.30;;;;;;;;;;5029144;28;20072;-65
2022/04/17 05:52:43;;;;;;;40.35;15.48;;;;;;;;;;5041070;28;20067;-65
2022/04/17 05:55:09;;;;;;;53.70;17.35;;;;;;;;;;5041025;28;20511;-65
2022/04/17 05:57:36;;;;;;;39.80;15.98;;;;;;;;;;5055274;28;20040;-65
2022/04/17 06:00:03;;;;;;;87.00;23.90;;;;;;;;;;5043777;28;20060;-65
2022/04/17 06:02:29;;;;;;;46.38;16.35;;;;;;;;;;5050351;28;20049;-64
2022/04/17 06:04:55;;;;;;;59.03;19.38;;;;;;;;;;5050247;28;20111;-65
2022/04/17 06:07:25;;;;;;;25.27;12.40;;;;;;;;;;5024824;28;20053;-65
2022/04/17 06:09:51;;;;;;;38.35;14.57;;;;;;;;;;5045685;28;20071;-64
2022/04/17 06:12:17;;;;;;;25.65;12.13;;;;;;;;;;5044659;28;20125;-65
2022/04/17 06:14:43;;;;;;;37.38;15.60;;;;;;;;;;5017052;28;20050;-65
2022/04/17 06:17:12;;;;;;;23.98;13.02;;;;;;;;;;5027704;28;20040;-66
2022/04/17 06:19:38;;;;;;;20.25;12.52;;;;;;;;;;5049080;28;20468;-65
2022/04/17 06:22:05;;;;;;;19.08;11.77;;;;;;;;;;5051739;28;20172;-64
2022/04/17 06:24:31;;;;;;;24.05;12.68;;;;;;;;;;5017249;28;20056;-65
2022/04/17 06:26:57;;;;;;;24.65;12.32;;;;;;;;;;5027153;28;20072;-65
2022/04/17 06:29:23;;;;;;;17.48;11.10;;;;;;;;;;5019629;28;20111;-65
2022/04/17 06:31:49;;;;;;;23.48;12.23;;;;;;;;;;5017338;28;20087;-64
2022/04/17 06:34:15;;;;;;;21.05;11.30;;;;;;;;;;5040342;28;20380;-65
2022/04/17 06:36:41;;;;;;;21.80;11.90;;;;;;;;;;5047783;28;20053;-64
2022/04/17 06:39:07;;;;;;;24.20;12.18;;;;;;;;;;5036937;28;20503;-66
2022/04/17 06:41:33;;;;;;;27.85;12.43;;;;;;;;;;5039443;28;20068;-65
2022/04/17 06:43:59;;;;;;;23.27;12.45;;;;;;;;;;5039064;28;20041;-65
2022/04/17 06:46:25;;;;;;;21.98;10.52;;;;;;;;;;5050706;28;20107;-65
2022/04/17 06:48:51;;;;;;;33.67;14.45;;;;;;;;;;5021763;28;20523;-65
2022/04/17 06:51:22;;;;;;;23.00;12.15;;;;;;;;;;5034445;28;20107;-66
2022/04/17 06:53:48;;;;;;;21.98;12.63;;;;;;;;;;5015695;28;20080;-64
2022/04/17 06:56:18;;;;;;;23.30;12.30;;;;;;;;;;5045105;28;20086;-66
2022/04/17 06:58:44;;;;;;;26.90;12.55;;;;;;;;;;5020895;28;20046;-66
2022/04/17 07:01:10;;;;;;;20.13;11.48;;;;;;;;;;5022944;28;20428;-66
2022/04/17 07:03:36;;;;;;;25.52;12.50;;;;;;;;;;5030857;28;20559;-64
2022/04/17 07:06:02;;;;;;;23.25;11.32;;;;;;;;;;5035729;28;20046;-64
2022/04/17 07:08:28;;;;;;;21.58;10.60;;;;;;;;;;5020612;28;20041;-66
2022/04/17 07:10:55;;;;;;;20.95;11.02;;;;;;;;;;5048251;28;20124;-65
2022/04/17 07:13:21;;;;;;;15.15;10.15;;;;;;;;;;5044346;28;20098;-65
2022/04/17 07:15:48;;;;;;;22.15;11.80;;;;;;;;;;5048902;28;20089;-65
2022/04/17 07:18:14;;;;;;;22.55;10.85;;;;;;;;;;5046960;28;20052;-65
2022/04/17 07:20:40;;;;;;;19.80;10.70;;;;;;;;;;5052840;28;20547;-66
2022/04/17 07:23:06;;;;;;;25.48;11.95;;;;;;;;;;5053198;28;20538;-65
2022/04/17 07:25:33;;;;;;;22.40;11.48;;;;;;;;;;5051846;28;20069;-65
2022/04/17 07:27:59;;;;;;;16.98;9.85;;;;;;;;;;5044542;28;21785;-66
2022/04/17 07:30:30;;;;;;;15.25;10.00;;;;;;;;;;5047705;28;20076;-65
2022/04/17 07:32:57;;;;;;;21.58;10.93;;;;;;;;;;5048436;28;20064;-66
2022/04/17 07:35:24;;;;;;;17.75;10.75;;;;;;;;;;5047790;28;20077;-66
2022/04/17 07:37:50;;;;;;;14.70;9.80;;;;;;;;;;5038137;28;20092;-64
2022/04/17 07:40:19;;;;;;;20.83;10.98;;;;;;;;;;5049601;28;20048;-65
2022/04/17 07:42:45;;;;;;;20.03;9.87;;;;;;;;;;5046594;28;20060;-65
2022/04/17 07:45:12;;;;;;;19.38;10.32;;;;;;;;;;5042656;28;20087;-66
2022/04/17 07:47:39;;;;;;;20.02;9.95;;;;;;;;;;5045728;28;20096;-64
2022/04/17 07:50:07;;;;;;;11.70;7.72;;;;;;;;;;5048999;28;20415;-65
2022/04/17 07:52:34;;;;;;;19.55;9.55;;;;;;;;;;5034689;28;20049;-65
2022/04/17 07:55:00;;;;;;;18.42;9.43;;;;;;;;;;5044459;28;20124;-66
2022/04/17 07:57:26;;;;;;;14.15;8.95;;;;;;;;;;5053524;28;20052;-64
2022/04/17 07:59:55;;;;;;;16.48;9.43;;;;;;;;;;5041039;28;20033;-64
2022/04/17 08:02:22;;;;;;;13.38;8.93;;;;;;;;;;5054650;28;20049;-68
2022/04/17 08:04:52;;;;;;;12.63;8.45;;;;;;;;;;5055246;28;20460;-65
2022/04/17 08:07:19;;;;;;;16.25;9.10;;;;;;;;;;5052979;28;20048;-65
2022/04/17 08:09:45;;;;;;;16.08;8.38;;;;;;;;;;5052745;28;20044;-65
2022/04/17 08:12:11;;;;;;;18.23;9.20;;;;;;;;;;5051952;28;20041;-66
2022/04/17 08:14:37;;;;;;;21.05;9.15;;;;;;;;;;5020835;28;20052;-66
2022/04/17 08:17:03;;;;;;;11.32;7.82;;;;;;;;;;5047199;28;20052;-65
2022/04/17 08:19:31;;;;;;;19.60;8.65;;;;;;;;;;5046231;28;20044;-65
2022/04/17 08:21:58;;;;;;;14.43;7.60;;;;;;;;;;5043659;28;20119;-66
2022/04/17 08:24:24;;;;;;;11.13;6.88;;;;;;;;;;5032257;28;20049;-65
2022/04/17 08:26:50;;;;;;;11.43;7.22;;;;;;;;;;5033509;28;20056;-65
2022/04/17 08:29:19;;;;;;;15.10;8.23;;;;;;;;;;5045766;28;20049;-66
2022/04/17 08:31:45;;;;;;;14.63;7.18;;;;;;;;;;5047303;28;20088;-66
2022/04/17 08:34:11;;;;;;;8.45;6.32;;;;;;;;;;5053070;28;20085;-65
2022/04/17 08:36:37;;;;;;;11.13;6.43;;;;;;;;;;5034806;28;20107;-68
2022/04/17 08:39:03;;;;;;;8.88;6.00;;;;;;;;;;5046583;28;20040;-66
2022/04/17 08:41:30;;;;;;;8.48;5.97;;;;;;;;;;5015283;28;20053;-65
2022/04/17 08:43:56;;;;;;;8.07;5.88;;;;;;;;;;5051756;28;20049;-65
2022/04/17 08:46:22;;;;;;;9.23;6.30;;;;;;;;;;5046268;28;20045;-66
2022/04/17 08:48:49;;;;;;;12.60;7.13;;;;;;;;;;5017576;28;20068;-66
2022/04/17 08:51:15;;;;;;;7.00;5.72;;;;;;;;;;5049738;28;20037;-65
2022/04/17 08:53:42;;;;;;;10.52;6.25;;;;;;;;;;5053097;28;20500;-66
2022/04/17 08:56:08;;;;;;;19.63;7.95;;;;;;;;;;5049309;28;20127;-66
2022/04/17 08:58:34;;;;;;;13.82;7.07;;;;;;;;;;5017269;28;20053;-66
2022/04/17 09:01:00;;;;;;;9.80;6.45;;;;;;;;;;5039312;28;20041;-66
2022/04/17 09:03:26;;;;;;;11.35;5.72;;;;;;;;;;5018999;28;20041;-67
2022/04/17 09:05:53;;;;;;;12.27;5.88;;;;;;;;;;5046219;28;20056;-66
2022/04/17 09:08:21;;;;;;;9.70;5.55;;;;;;;;;;5039711;28;20115;-66
2022/04/17 09:10:57;;;;;;;10.45;6.20;;;;;;;;;;5041225;28;20064;-66
2022/04/17 09:13:33;;;;;;;8.18;5.78;;;;;;;;;;5035726;28;20133;-67
2022/04/17 09:16:03;;;;;;;21.52;8.30;;;;;;;;;;5019447;28;20056;-67
2022/04/17 09:18:30;;;;;;;20.20;8.45;;;;;;;;;;5033787;28;20084;-67
2022/04/17 09:20:56;;;;;;;19.88;7.88;;;;;;;;;;5031429;28;20060;-67
2022/04/17 09:23:37;;;;;;;9.35;6.18;;;;;;;;;;5030095;28;20055;-66
2022/04/17 09:26:03;;;;;;;20.63;8.00;;;;;;;;;;5041699;28;20459;-67
2022/04/17 09:28:33;;;;;;;12.95;6.82;;;;;;;;;;5032798;28;20137;-66
2022/04/17 09:31:01;;;;;;;8.27;6.35;;;;;;;;;;5032305;28;20444;-67
2022/04/17 09:33:35;;;;;;;15.18;7.30;;;;;;;;;;5014203;28;20111;-67
2022/04/17 09:36:01;;;;;;;8.90;6.20;;;;;;;;;;5034295;28;20034;-68
2022/04/17 09:38:30;;;;;;;7.80;6.30;;;;;;;;;;5046796;28;20060;-66
2022/04/17 09:41:10;;;;;;;8.73;5.55;;;;;;;;;;5048231;28;20060;-66
2022/04/17 09:43:36;;;;;;;16.02;7.07;;;;;;;;;;5044706;28;20045;-66
2022/04/17 09:46:03;;;;;;;8.23;5.60;;;;;;;;;;5036138;28;20050;-67
2022/04/17 09:48:47;;;;;;;8.88;5.85;;;;;;;;;;5046405;28;20136;-67
2022/04/17 09:51:24;;;;;;;10.25;5.75;;;;;;;;;;5054835;28;20049;-67
2022/04/17 09:54:03;;;;;;;8.07;4.68;;;;;;;;;;5039425;28;20045;-67
2022/04/17 09:56:33;;;;;;;6.97;4.70;;;;;;;;;;5037703;28;20392;-67
2022/04/17 09:59:00;;;;;;;9.43;5.75;;;;;;;;;;5035884;28;20056;-67
2022/04/17 10:01:27;;;;;;;14.20;6.53;;;;;;;;;;5040166;28;20049;-66
2022/04/17 10:03:54;;;;;;;17.02;6.20;;;;;;;;;;5045917;28;20517;-65
2022/04/17 10:06:23;;;;;;;10.88;5.65;;;;;;;;;;5017639;28;20041;-66
2022/04/17 10:08:50;;;;;;;5.28;4.78;;;;;;;;;;5041095;28;20438;-66
2022/04/17 10:11:16;;;;;;;11.52;5.57;;;;;;;;;;5033950;28;20045;-66
2022/04/17 10:13:44;;;;;;;13.02;6.05;;;;;;;;;;5035869;28;20369;-67
2022/04/17 10:16:11;;;;;;;10.77;6.03;;;;;;;;;;5042951;28;20151;-68
2022/04/17 10:18:39;;;;;;;10.80;6.00;;;;;;;;;;5044123;28;20217;-66
2022/04/17 10:21:06;;;;;;;7.93;5.82;;;;;;;;;;5029492;28;20103;-67
2022/04/17 10:23:33;;;;;;;17.45;6.43;;;;;;;;;;5030776;28;20037;-66
2022/04/17 10:26:02;;;;;;;8.35;4.80;;;;;;;;;;5051288;28;20111;-67
2022/04/17 10:28:29;;;;;;;7.80;5.05;;;;;;;;;;5045998;28;20135;-68
2022/04/17 10:31:04;;;;;;;11.15;4.93;;;;;;;;;;5055822;28;20045;-68
2022/04/17 10:33:49;;;;;;;6.75;5.13;;;;;;;;;;5055275;28;20057;-68
2022/04/17 10:36:15;;;;;;;14.32;6.03;;;;;;;;;;5054910;28;20053;-66
2022/04/17 10:38:57;;;;;;;5.43;3.95;;;;;;;;;;5050799;28;20043;-67
2022/04/17 10:41:23;;;;;;;7.45;4.40;;;;;;;;;;5036864;28;20522;-66
2022/04/17 10:43:50;;;;;;;6.50;4.60;;;;;;;;;;5039753;28;20112;-66
2022/04/17 10:46:16;;;;;;;6.45;4.80;;;;;;;;;;5044378;28;20053;-67
2022/04/17 10:48:45;;;;;;;12.48;6.25;;;;;;;;;;5028761;28;20037;-66
2022/04/17 10:51:12;;;;;;;9.20;5.18;;;;;;;;;;5047017;28;20064;-66
2022/04/17 10:53:48;;;;;;;6.53;5.00;;;;;;;;;;5047257;28;20048;-68
2022/04/17 10:56:16;;;;;;;18.98;8.52;;;;;;;;;;5049113;28;20049;-66
2022/04/17 10:58:49;;;;;;;8.23;5.03;;;;;;;;;;5043497;28;20041;-66
2022/04/17 11:01:15;;;;;;;8.95;5.22;;;;;;;;;;5044579;28;20045;-66
2022/04/17 11:03:54;;;;;;;7.95;5.15;;;;;;;;;;5051653;28;20488;-67
2022/04/17 11:06:30;;;;;;;9.00;5.05;;;;;;;;;;5022252;28;20088;-66
2022/04/17 11:09:04;;;;;;;9.38;5.38;;;;;;;;;;5036780;28;20060;-67
2022/04/17 11:11:34;;;;;;;8.90;5.90;;;;;;;;;;5035606;28;20053;-66
2022/04/17 11:14:08;;;;;;;15.30;5.95;;;;;;;;;;5051321;28;20408;-66
2022/04/17 11:16:37;;;;;;;10.20;5.78;;;;;;;;;;5043936;28;20049;-67
2022/04/17 11:19:06;;;;;;;7.10;5.20;;;;;;;;;;5045204;28;20048;-67
2022/04/17 11:21:41;;;;;;;8.75;5.20;;;;;;;;;;5037473;28;20095;-67
2022/04/17 11:24:07;;;;;;;13.13;6.18;;;;;;;;;;5018918;28;20049;-67
2022/04/17 11:26:52;;;;;;;8.88;5.90;;;;;;;;;;5044875;28;20454;-67
2022/04/17 11:29:33;;;;;;;9.63;5.95;;;;;;;;;;5013662;28;20117;-67
2022/04/17 11:32:00;;;;;;;11.25;6.40;;;;;;;;;;5029178;28;20053;-68
2022/04/17 11:34:26;;;;;;;21.88;8.57;;;;;;;;;;5014742;28;20096;-67
2022/04/17 11:36:52;;;;;;;9.70;6.45;;;;;;;;;;5014888;28;20050;-68
2022/04/17 11:39:27;;;;;;;7.80;5.57;;;;;;;;;;5013916;28;20061;-67
2022/04/17 11:41:53;;;;;;;9.00;5.35;;;;;;;;;;5013211;28;20045;-68
2022/04/17 11:44:19;;;;;;;23.02;8.35;;;;;;;;;;5027559;28;20136;-68
2022/04/17 11:46:45;;;;;;;7.25;5.45;;;;;;;;;;5024978;28;20128;-69
2022/04/17 11:49:11;;;;;;;29.42;9.88;;;;;;;;;;5032401;28;20445;-67
2022/04/17 11:51:43;;;;;;;9.80;5.25;;;;;;;;;;5032746;28;20052;-67
2022/04/17 11:54:29;;;;;;;10.52;5.78;;;;;;;;;;5023082;28;20057;-67
2022/04/17 11:56:55;;;;;;;21.55;8.02;;;;;;;;;;5022505;28;20048;-67
2022/04/17 11:59:23;;;;;;;8.15;5.43;;;;;;;;;;5023162;28;20041;-68
2022/04/17 12:02:06;;;;;;;37.88;11.65;;;;;;;;;;5030363;28;20053;-68
2022/04/17 12:04:33;;;;;;;12.07;7.22;;;;;;;;;;5017715;28;20042;-67
2022/04/17 12:06:59;;;;;;;8.38;5.82;;;;;;;;;;5014516;28;20053;-67
2022/04/17 12:09:25;;;;;;;7.32;5.88;;;;;;;;;;5027327;28;20072;-66
2022/04/17 12:11:51;;;;;;;11.30;6.68;;;;;;;;;;5021852;28;20069;-68
2022/04/17 12:14:29;;;;;;;7.10;5.47;;;;;;;;;;5029320;28;20475;-68
2022/04/17 12:16:56;;;;;;;8.32;6.60;;;;;;;;;;5018799;28;20046;-67
2022/04/17 12:19:22;;;;;;;7.13;5.68;;;;;;;;;;5015158;28;20088;-67
2022/04/17 12:21:48;;;;;;;8.85;6.30;;;;;;;;;;5018976;28;20053;-67
2022/04/17 12:24:14;;;;;;;10.15;6.50;;;;;;;;;;5018339;28;20037;-68
2022/04/17 12:26:41;;;;;;;8.27;6.18;;;;;;;;;;5019019;28;20046;-67
2022/04/17 12:29:07;;;;;;;12.23;6.38;;;;;;;;;;5028731;28;20448;-67
2022/04/17 12:31:36;;;;;;;15.23;7.43;;;;;;;;;;5045788;28;20593;-67
2022/04/17 12:34:08;;;;;;;22.98;8.07;;;;;;;;;;5037331;28;20052;-64
2022/04/17 12:36:34;;;;;;;25.23;8.98;;;;;;;;;;5035689;28;20120;-66
2022/04/17 12:39:02;;;;;;;10.02;6.28;;;;;;;;;;5049463;28;20432;-67
2022/04/17 12:41:30;;;;;;;18.75;8.48;;;;;;;;;;5054035;28;20107;-67
2022/04/17 12:43:56;;;;;;;7.80;5.65;;;;;;;;;;5054047;28;20088;-67
2022/04/17 12:46:29;;;;;;;20.98;6.72;;;;;;;;;;5057388;28;20045;-68
2022/04/17 12:49:03;;;;;;;9.35;6.78;;;;;;;;;;5056985;28;20425;-68
2022/04/17 12:51:29;;;;;;;12.77;7.10;;;;;;;;;;5035808;28;20038;-66
2022/04/17 12:53:56;;;;;;;9.27;6.13;;;;;;;;;;5055791;28;20052;-67
2022/04/17 12:56:25;;;;;;;9.82;6.35;;;;;;;;;;5050461;28;20041;-66
2022/04/17 12:58:58;;;;;;;9.70;6.97;;;;;;;;;;5044752;28;20527;-67
2022/04/17 13:01:26;;;;;;;21.77;8.55;;;;;;;;;;5043749;28;20045;-67
2022/04/17 13:03:52;;;;;;;16.10;7.60;;;;;;;;;;5020557;28;20037;-67
2022/04/17 13:06:19;;;;;;;12.80;7.00;;;;;;;;;;5051318;28;20077;-67
2022/04/17 13:09:04;;;;;;;8.13;6.17;;;;;;;;;;5053411;28;20124;-66
2022/04/17 13:11:34;;;;;;;9.32;6.93;;;;;;;;;;5040666;28;20064;-67
2022/04/17 13:14:02;;;;;;;11.27;6.50;;;;;;;;;;5047419;28;20488;-67
2022/04/17 13:16:28;;;;;;;;;;;;;;;;;;5058705;28;20492;-66
2022/04/17 13:18:54;;;;;;;11.77;6.80;;;;;;;;;;5039484;28;19931;-68
2022/04/17 13:21:20;;;;;;;7.63;5.55;;;;;;;;;;5039981;28;20053;-67
2022/04/17 13:23:47;;;;;;;7.22;5.40;;;;;;;;;;5056879;28;20124;-68
2022/04/17 13:26:13;;;;;;;6.95;4.78;;;;;;;;;;5056980;28;20543;-67
2022/04/17 13:28:41;;;;;;;8.15;4.65;;;;;;;;;;5029215;28;20075;-67
2022/04/17 13:31:08;;;;;;;8.38;5.82;;;;;;;;;;5055984;28;20419;-67
2022/04/17 13:33:34;;;;;;;8.40;5.03;;;;;;;;;;5038858;28;20160;-67
2022/04/17 13:36:00;;;;;;;6.03;4.80;;;;;;;;;;5044172;28;20506;-68
2022/04/17 13:38:27;;;;;;;6.00;4.05;;;;;;;;;;5034692;28;20124;-67
2022/04/17 13:40:53;;;;;;;4.93;3.80;;;;;;;;;;5022153;28;20132;-67
2022/04/17 13:43:24;;;;;;;4.97;3.88;;;;;;;;;;5044775;28;20053;-68
2022/04/17 13:45:50;;;;;;;5.90;4.20;;;;;;;;;;5045492;28;20049;-68
2022/04/17 13:48:16;;;;;;;20.33;11.38;;;;;;;;;;5046245;28;20473;-67
2022/04/17 13:50:42;;;;;;;14.55;5.07;;;;;;;;;;5048327;28;20384;-66
2022/04/17 13:53:08;;;;;;;9.50;3.80;;;;;;;;;;5049847;28;20531;-67
2022/04/17 13:55:35;;;;;;;10.73;4.20;;;;;;;;;;5033194;28;20112;-67
2022/04/17 13:58:01;;;;;;;3.73;3.30;;;;;;;;;;5046192;28;20044;-66
2022/04/17 14:00:27;;;;;;;9.02;4.28;;;;;;;;;;5049299;28;20049;-67
2022/04/17 14:02:53;;;;;;;5.55;3.05;;;;;;;;;;5038833;28;20042;-67
2022/04/17 14:05:19;;;;;;;11.90;3.47;;;;;;;;;;5041331;28;20047;-67
2022/04/17 14:07:45;;;;;;;9.00;3.17;;;;;;;;;;5043696;28;20037;-68
2022/04/17 14:10:11;;;;;;;6.30;2.95;;;;;;;;;;5049951;28;20136;-67
2022/04/17 14:12:38;;;;;;;9.90;3.58;;;;;;;;;;5017100;28;20084;-68
2022/04/17 14:15:04;;;;;;;7.70;3.35;;;;;;;;;;5051986;28;20053;-69
2022/04/17 14:17:30;;;;;;;7.15;3.10;;;;;;;;;;5049232;28;20051;-68
2022/04/17 14:19:57;;;;;;;16.63;5.65;;;;;;;;;;5018795;28;20124;-67
2022/04/17 14:22:24;;;;;;;7.05;3.45;;;;;;;;;;5044853;28;20443;-67
2022/04/17 14:24:53;;;;;;;17.30;4.43;;;;;;;;;;5025327;28;20075;-67
2022/04/17 14:27:20;;;;;;;7.60;3.03;;;;;;;;;;5060215;28;20143;-68
2022/04/17 14:29:47;;;;;;;6.93;2.88;;;;;;;;;;5055923;28;20045;-67
2022/04/17 14:32:13;;;;;;;3.13;2.40;;;;;;;;;;5054119;28;20142;-66
2022/04/17 14:34:39;;;;;;;3.80;2.33;;;;;;;;;;5039990;28;20064;-66
2022/04/17 14:37:05;;;;;;;4.30;2.58;;;;;;;;;;5050830;28;20506;-65
2022/04/17 14:39:31;;;;;;;6.07;2.70;;;;;;;;;;5051584;28;20507;-66
2022/04/17 14:41:58;;;;;;;8.02;3.33;;;;;;;;;;5043881;28;20045;-67
2022/04/17 14:44:24;;;;;;;3.30;2.70;;;;;;;;;;5032337;28;20046;-66
2022/04/17 14:46:50;;;;;;;6.88;2.58;;;;;;;;;;5047371;28;20040;-66